createdAt,value
2023-03-03T00:03:06.120Z,84.07
2023-03-03T00:08:07.784Z,84.20
2023-03-03T00:13:24.321Z,83.56
2023-03-03T00:18:34.901Z,83.62
2023-03-03T00:23:38.759Z,83.78
2023-03-03T00:28:47.285Z,83.34
2023-03-03T00:33:54.960Z,83.43
2023-03-03T00:39:11.420Z,83.24
2023-03-03T00:44:45.417Z,83.25
2023-03-03T00:49:47.047Z,82.78
2023-03-03T00:54:48.863Z,82.75
2023-03-03T00:59:50.705Z,82.81
2023-03-03T01:04:56.442Z,82.35
2023-03-03T01:09:59.247Z,82.55
2023-03-03T01:15:02.246Z,82.51
2023-03-03T01:20:04.616Z,81.98
2023-03-03T01:25:06.839Z,81.76
2023-03-03T01:30:09.431Z,81.21
2023-03-03T01:35:11.760Z,81.46
2023-03-03T01:40:19.467Z,81.37
2023-03-03T01:45:28.099Z,81.55
2023-03-03T01:50:45.365Z,81.05
2023-03-03T01:55:50.278Z,81.15
2023-03-03T02:00:57.810Z,81.42
2023-03-03T02:06:06.324Z,81.79
2023-03-03T02:11:09.023Z,81.73
2023-03-03T02:16:10.672Z,82.57
2023-03-03T02:21:18.035Z,82.25
2023-03-03T02:26:41.400Z,82.37
2023-03-03T02:31:45.093Z,82.35
2023-03-03T02:36:46.983Z,82.84
2023-03-03T02:42:21.752Z,82.37
2023-03-03T02:47:29.536Z,83.07
2023-03-03T02:52:31.311Z,82.78
2023-03-03T02:57:32.917Z,83.27
2023-03-03T03:02:34.741Z,84.02
2023-03-03T03:07:37.746Z,84.13
2023-03-03T03:12:40.265Z,84.04
2023-03-03T03:17:44.195Z,83.57
2023-03-03T03:22:47.078Z,83.90
2023-03-03T03:27:48.881Z,84.10
2023-03-03T03:32:50.776Z,83.43
2023-03-03T03:37:52.731Z,83.72
2023-03-03T03:42:55.112Z,84.13
2023-03-03T03:47:58.032Z,83.78
2023-03-03T03:52:59.709Z,83.72
2023-03-03T03:58:02.287Z,83.95
2023-03-03T04:03:04.170Z,84.37
2023-03-03T04:08:06.444Z,84.08
2023-03-03T04:13:08.765Z,84.46
2023-03-03T04:18:11.212Z,84.88
2023-03-03T04:23:14.858Z,84.61
2023-03-03T04:28:17.659Z,84.21
2023-03-03T04:33:19.957Z,84.39
2023-03-03T04:38:22.016Z,84.72
2023-03-03T04:43:24.900Z,85.07
2023-03-03T04:48:27.279Z,85.03
2023-03-03T04:53:29.473Z,85.00
2023-03-03T04:58:31.357Z,85.37
2023-03-03T05:03:33.257Z,85.41
2023-03-03T05:08:35.292Z,85.57
2023-03-03T05:13:36.855Z,85.64
2023-03-03T05:18:38.611Z,85.89
2023-03-03T05:23:40.654Z,85.89
2023-03-03T05:28:42.255Z,85.65
2023-03-03T05:33:43.951Z,85.29
2023-03-03T05:38:45.554Z,84.80
2023-03-03T05:43:47.297Z,85.04
2023-03-03T05:48:48.932Z,85.12
2023-03-03T05:53:50.575Z,85.26
2023-03-03T05:58:52.280Z,85.17
2023-03-03T06:03:53.926Z,85.14
2023-03-03T06:08:57.273Z,85.03
2023-03-03T06:13:59.133Z,84.93
2023-03-03T06:19:01.404Z,85.21
2023-03-03T06:24:03.112Z,85.58
2023-03-03T06:29:04.766Z,85.53
2023-03-03T06:34:06.381Z,85.24
2023-03-03T06:39:08.054Z,85.53
2023-03-03T06:44:11.909Z,85.55
2023-03-03T06:49:13.530Z,85.75
2023-03-03T06:54:16.649Z,85.68
2023-03-03T06:59:20.813Z,85.48
2023-03-03T07:04:31.065Z,85.91
2023-03-03T07:09:32.769Z,85.92
2023-03-03T07:14:39.558Z,86.29
2023-03-03T07:19:42.430Z,86.00
2023-03-03T07:24:52.832Z,88.04
2023-03-03T07:30:16.348Z,88.29
2023-03-03T07:35:40.276Z,89.63
2023-03-03T07:40:49.568Z,88.77
2023-03-03T07:45:51.649Z,89.27
2023-03-03T07:50:53.351Z,88.89
2023-03-03T07:55:55.204Z,89.36
2023-03-03T08:01:18.550Z,87.90
2023-03-03T08:06:44.493Z,87.84
2023-03-03T08:11:57.790Z,86.49
2023-03-03T08:17:01.665Z,85.64
2023-03-03T08:22:16.509Z,84.80
2023-03-03T08:27:18.084Z,82.93
2023-03-03T08:32:19.855Z,81.63
2023-03-03T08:37:21.529Z,79.62
2023-03-03T08:42:23.096Z,77.87
2023-03-03T08:47:26.000Z,78.33
2023-03-03T08:52:48.244Z,76.09
2023-03-03T08:57:50.022Z,73.40
2023-03-03T09:02:51.761Z,70.70
2023-03-03T09:07:54.461Z,70.12
2023-03-03T09:12:58.989Z,71.63
2023-03-03T09:18:14.051Z,69.92
2023-03-03T09:23:38.180Z,69.54
2023-03-03T09:28:39.858Z,65.86
2023-03-03T09:33:45.026Z,64.38
2023-03-03T09:38:47.864Z,63.28
2023-03-03T09:44:08.238Z,64.70
2023-03-03T09:49:27.783Z,63.17
2023-03-03T09:54:54.154Z,62.12
2023-03-03T10:00:10.871Z,62.65
2023-03-03T10:05:25.362Z,64.57
2023-03-03T10:10:51.387Z,61.36
2023-03-03T10:15:59.172Z,61.40
2023-03-03T10:21:41.070Z,62.93
2023-03-03T10:27:12.072Z,60.45
2023-03-03T10:32:45.931Z,61.54
2023-03-03T10:38:25.127Z,61.76
2023-03-03T10:44:00.950Z,61.41
2023-03-03T10:49:27.545Z,62.47
2023-03-03T10:54:57.591Z,60.11
2023-03-03T11:00:15.847Z,57.94
2023-03-03T11:05:43.695Z,57.42
2023-03-03T11:10:50.047Z,53.42
2023-03-03T11:16:23.033Z,51.02
2023-03-03T11:21:37.715Z,52.61
2023-03-03T11:26:48.072Z,54.69
2023-03-03T11:31:57.569Z,56.30
2023-03-03T11:37:08.559Z,55.86
2023-03-03T11:42:32.293Z,55.44
2023-03-03T11:47:42.571Z,55.05
2023-03-03T11:52:53.307Z,54.16
2023-03-03T11:58:13.343Z,52.99
2023-03-03T12:03:30.350Z,52.23
2023-03-03T12:08:42.766Z,50.85
2023-03-03T12:14:22.378Z,52.77
2023-03-03T12:19:54.408Z,53.01
2023-03-03T12:24:55.989Z,53.48
2023-03-03T12:30:07.303Z,53.39
2023-03-03T12:35:27.626Z,53.72
2023-03-03T12:40:32.377Z,54.72
2023-03-03T12:45:49.537Z,53.69
2023-03-03T12:51:16.434Z,53.59
2023-03-03T12:56:33.457Z,54.69
2023-03-03T13:01:52.589Z,54.39
2023-03-03T13:07:10.182Z,54.20
2023-03-03T13:12:51.731Z,54.46
2023-03-03T13:18:05.173Z,54.69
2023-03-03T13:23:38.397Z,53.94
2023-03-03T13:28:50.036Z,53.69
2023-03-03T13:33:56.661Z,54.66
2023-03-03T13:39:06.409Z,54.01
2023-03-03T13:44:25.804Z,53.95
2023-03-03T13:50:05.802Z,54.59
2023-03-03T13:55:21.684Z,54.30
2023-03-03T14:00:44.918Z,54.10
2023-03-03T14:05:49.859Z,54.34
2023-03-03T14:11:22.438Z,54.63
2023-03-03T14:16:45.844Z,54.56
2023-03-03T14:22:03.575Z,54.56
2023-03-03T14:27:23.355Z,55.02
2023-03-03T14:32:43.232Z,54.76
2023-03-03T14:37:47.482Z,54.98
2023-03-03T14:42:54.551Z,54.26
2023-03-03T14:47:56.264Z,54.93
2023-03-03T14:53:08.626Z,54.37
2023-03-03T14:58:29.292Z,53.57
2023-03-03T15:03:31.543Z,53.63
2023-03-03T15:08:36.479Z,54.13
2023-03-03T15:13:38.552Z,54.21
2023-03-03T15:19:04.166Z,53.69
2023-03-03T15:24:22.227Z,54.25
2023-03-03T15:29:36.156Z,55.72
2023-03-03T15:34:51.363Z,54.87
2023-03-03T15:40:05.233Z,55.65
2023-03-03T15:45:16.075Z,55.84
2023-03-03T15:50:40.494Z,55.71
2023-03-03T15:55:42.038Z,56.35
2023-03-03T16:01:16.269Z,57.53
2023-03-03T16:06:33.729Z,59.01
2023-03-03T16:12:20.321Z,60.84
2023-03-03T16:17:37.037Z,60.28
2023-03-03T16:23:22.370Z,58.95
2023-03-03T16:28:45.504Z,57.45
2023-03-03T16:34:05.404Z,56.68
2023-03-03T16:39:15.141Z,56.57
2023-03-03T16:44:47.864Z,56.96
2023-03-03T16:50:09.567Z,57.59
2023-03-03T16:55:42.640Z,57.63
2023-03-03T17:01:06.500Z,58.82
2023-03-03T17:06:35.966Z,59.67
2023-03-03T17:12:19.502Z,60.07
2023-03-03T17:17:59.784Z,60.07
2023-03-03T17:23:02.637Z,59.29
2023-03-03T17:28:38.663Z,59.43
2023-03-03T17:33:49.903Z,58.24
2023-03-03T17:39:19.372Z,58.81
2023-03-03T17:44:28.731Z,59.23
2023-03-03T17:49:56.500Z,59.40
2023-03-03T17:55:20.057Z,59.78
2023-03-03T18:00:43.879Z,59.94
2023-03-03T18:06:06.460Z,60.31
2023-03-03T18:11:38.453Z,60.41
2023-03-03T18:16:58.227Z,59.84
2023-03-03T18:22:05.751Z,60.01
2023-03-03T18:27:34.958Z,60.68
2023-03-03T18:33:02.020Z,61.17
2023-03-03T18:38:15.897Z,60.77
2023-03-03T18:43:42.736Z,61.19
2023-03-03T18:48:50.468Z,61.31
2023-03-03T18:54:08.646Z,61.78
2023-03-03T18:59:10.564Z,61.62
2023-03-03T19:04:16.354Z,62.25
2023-03-03T19:09:56.780Z,61.69
2023-03-03T19:14:58.519Z,62.34
2023-03-03T19:20:08.837Z,62.36
2023-03-03T19:25:18.472Z,62.59
2023-03-03T19:30:44.539Z,62.73
2023-03-03T19:36:06.087Z,62.75
2023-03-03T19:41:30.661Z,62.90
2023-03-03T19:47:23.728Z,62.81
2023-03-03T19:52:44.706Z,62.89
2023-03-03T19:58:02.094Z,62.92
2023-03-03T20:03:41.269Z,63.08
2023-03-03T20:08:58.796Z,63.28
2023-03-03T20:14:10.186Z,63.23
2023-03-03T20:19:45.522Z,63.58
2023-03-03T20:25:04.536Z,62.93
2023-03-03T20:30:08.757Z,62.46
2023-03-03T20:35:27.368Z,62.10
2023-03-03T20:41:07.620Z,61.99
2023-03-03T20:46:35.101Z,62.18
2023-03-03T20:51:45.579Z,61.80
2023-03-03T20:57:22.309Z,62.40
2023-03-03T21:02:34.932Z,62.52
2023-03-03T21:07:37.026Z,62.81
2023-03-03T21:12:38.775Z,62.65
2023-03-03T21:17:41.890Z,62.76
2023-03-03T21:22:43.781Z,63.04
2023-03-03T21:27:45.503Z,63.13
2023-03-03T21:32:49.224Z,62.96
2023-03-03T21:37:53.921Z,63.25
2023-03-03T21:42:58.965Z,62.79
2023-03-03T21:48:03.605Z,62.93
2023-03-03T21:53:05.292Z,63.63
2023-03-03T21:58:06.983Z,63.18
2023-03-03T22:03:08.817Z,63.83
2023-03-03T22:08:10.483Z,64.06
2023-03-03T22:13:12.250Z,62.87
2023-03-03T22:18:15.072Z,63.89
2023-03-03T22:23:18.805Z,63.36
2023-03-03T22:28:20.544Z,63.27
2023-03-03T22:33:22.233Z,63.12
2023-03-03T22:38:25.141Z,63.21
2023-03-03T22:43:29.676Z,63.47
2023-03-03T22:48:31.900Z,63.50
2023-03-03T22:53:33.798Z,64.00
2023-03-03T22:58:36.960Z,63.77
2023-03-03T23:03:39.741Z,64.28
2023-03-03T23:08:41.361Z,64.92
2023-03-03T23:13:42.992Z,64.94
2023-03-03T23:18:44.589Z,65.34
2023-03-03T23:23:46.164Z,65.37
2023-03-03T23:28:47.726Z,64.86
2023-03-03T23:33:50.915Z,64.68
2023-03-03T23:38:52.611Z,64.81
2023-03-03T23:43:54.257Z,64.49
2023-03-03T23:48:55.865Z,64.49
2023-03-03T23:53:57.567Z,64.74
2023-03-03T23:59:00.533Z,63.94
